Wind From: 20-09-2018 14:00 Until: 20:00 warning for: Wind Level: Yellow info button
suomi:
Tuulivaroitus maa-alueille: Lounaistuuli on voimakasta, tuulen nopeus puuskissa 15 m/s.

svenska:
Vindvarning för landområden: är den sydvästliga vinden kraftigt, i vindbyarna 15 m/s.

english:
Wind warning for land areas: , strong winds from southwest may bring strong gusts of 15 m/s. 


Thunder radar more information blitzortung!


Löydät sääaseman tiedot myös:

European Weather Network

Finland Weather Exchange

Weather Underground

AWEKAS



Weather Underground säähistoriasivu

Päivittäin yhteenveto Syyskuu 14, 2017 Yksiköt:  Englantilaiset    Metriset   Molemmat
« Edellinen Päivä
Seuraava Päivä »
Päivittäin Viikoittain Kuukausittain Vuosittain Mukautettu
  Korkea: Matala: Keskiarvo:
Lämpötila: TemperatureC °F 7.6 °F 10.7 °F
Kastepiste: DewpointC °F 7.2 °F 10.1 °F
Kosteus: Humidity % 84 % 95 %
Tuulen nopeus: WindSpeedKMH mph 0.0 mph 0.1 mph
Tuulenpuuska: WindSpeedGustKMH mph - -
Tuuli:- - WNW
Ilmanpaine: PressurehPa in 987.0 in -
Sade: 0.0 in    
Historical Graphs
 
 
Taulukkotiedot Syyskuu 14, 2017
Aika Lämpötila Kastepiste Ilmanpaine Tuuli Tuulen nopeus Tuulenpuuska Kosteus Sademäärä (tunneittain)
TemperatureC °F DewpointC °F PressurehPa in Calm     Humidity % HourlyPrecipMM in
00:00 7.6 °F 7.2 °F 990.7 in Calm     97 % 0.0 in
00:15 7.9 °F 7.6 °F 990.7 in Calm     98 % 0.0 in
00:30 8.1 °F 7.7 °F 990.7 in Calm     97 % 0.0 in
00:45 8.2 °F 7.9 °F 990.4 in Calm     98 % 0.0 in
01:00 8.3 °F 8.0 °F 990.4 in Calm     98 % 0.0 in
01:15 8.4 °F 8.0 °F 990.1 in Calm     97 % 0.0 in
01:30 8.6 °F 8.3 °F 990.1 in Calm     98 % 0.0 in
01:45 8.6 °F 8.3 °F 990.1 in Calm     98 % 0.0 in
02:00 8.6 °F 8.3 °F 989.7 in Calm     98 % 0.0 in
02:15 8.7 °F 8.4 °F 989.7 in Calm     98 % 0.0 in
02:30 8.7 °F 8.4 °F 989.7 in Calm     98 % 0.0 in
02:45 8.7 °F 8.4 °F 989.4 in Calm     98 % 0.0 in
03:00 8.6 °F 8.3 °F 989.1 in Calm     98 % 0.0 in
03:15 8.4 °F 8.0 °F 989.1 in Calm     97 % 0.0 in
03:30 8.4 °F 8.0 °F 989.1 in Calm     97 % 0.0 in
03:45 8.4 °F 8.1 °F 989.1 in Calm     98 % 0.0 in
04:00 8.5 °F 8.2 °F 988.7 in Calm     98 % 0.0 in
04:15 8.6 °F 8.3 °F 988.7 in Calm     98 % 0.0 in
04:30 8.7 °F 8.4 °F 988.7 in Calm     98 % 0.0 in
04:45 8.8 °F 8.5 °F 988.7 in Calm     98 % 0.0 in
05:00 8.9 °F 8.6 °F 988.4 in Calm     98 % 0.0 in
05:15 9.0 °F 8.7 °F 988.4 in Calm     98 % 0.0 in
05:30 9.1 °F 8.8 °F 988.4 in Calm     98 % 0.0 in
05:45 9.1 °F 8.8 °F 988.0 in Calm     98 % 0.0 in
06:00 9.2 °F 8.9 °F 988.0 in Calm     98 % 0.0 in
06:30 9.2 °F 8.9 °F 987.7 in Calm     98 % 0.0 in
06:45 9.2 °F 8.9 °F 987.7 in Calm     98 % 0.0 in
07:00 9.2 °F 8.9 °F 987.7 in Calm     98 % 0.0 in
07:15 9.3 °F 9.0 °F 987.7 in Calm     98 % 0.0 in
07:30 9.3 °F 9.0 °F 987.7 in Calm     98 % 0.0 in
07:45 9.4 °F 9.1 °F 987.4 in Calm     98 % 0.0 in
08:00 9.6 °F 9.3 °F 987.4 in Calm     98 % 0.0 in
08:15 9.7 °F 9.4 °F 987.4 in Calm     98 % 0.0 in
08:30 9.7 °F 9.4 °F 987.0 in Calm     98 % 0.0 in
08:45 9.8 °F 9.5 °F 987.0 in Calm     98 % 0.0 in
09:00 9.8 °F 9.5 °F 987.0 in Calm     98 % 0.0 in
09:15 9.9 °F 9.6 °F 987.0 in Calm     98 % 0.0 in
09:30 10.1 °F 9.8 °F 987.0 in Calm     98 % 0.0 in
09:45 10.3 °F 10.0 °F 987.0 in Calm     98 % 0.0 in
10:00 10.4 °F 10.1 °F 987.0 in Calm     98 % 0.0 in
10:15 10.4 °F 10.1 °F 987.0 in Calm     98 % 0.0 in
10:30 10.6 °F 10.3 °F 987.0 in Calm     98 % 0.0 in
10:45 10.9 °F 10.6 °F 987.0 in Calm     98 % 0.0 in
11:00 11.1 °F 10.8 °F 987.0 in Calm     98 % 0.0 in
11:15 11.1 °F 10.8 °F 987.0 in Calm     98 % 0.0 in
11:30 11.2 °F 10.9 °F 987.0 in Calm     98 % 0.0 in
11:45 11.3 °F 11.0 °F 987.0 in Calm     98 % 0.0 in
12:00 11.4 °F 11.1 °F 987.0 in Calm     98 % 0.0 in
12:15 11.5 °F 11.2 °F 987.4 in Calm     98 % 0.0 in
12:30 11.6 °F 11.3 °F 987.4 in Calm     98 % 0.0 in
12:45 11.7 °F 11.4 °F 987.4 in Calm   1.6 mph 98 % 0.0 in
13:00 11.8 °F 11.5 °F 987.4 in Calm     98 % 0.0 in
13:15 11.9 °F 11.6 °F 987.4 in Calm     98 % 0.0 in
13:30 12.0 °F 11.7 °F 987.4 in Calm   1.6 mph 98 % 0.0 in
13:45 12.0 °F 11.5 °F 987.7 in Calm     97 % 0.0 in
14:00 12.2 °F 11.8 °F 987.7 in Calm     97 % 0.0 in
14:15 12.3 °F 11.8 °F 987.7 in Calm   1.6 mph 97 % 0.0 in
14:30 12.6 °F 12.1 °F 987.7 in Calm     97 % 0.0 in
14:45 12.6 °F 11.9 °F 987.7 in Calm     96 % 0.0 in
15:00 12.8 °F 12.3 °F 987.7 in Calm   3.2 mph 97 % 0.0 in
15:15 13.6 °F 12.4 °F 987.4 in West 1.6 mph 4.8 mph 93 % 0.0 in
15:30 14.0 °F 12.6 °F 987.4 in Calm   3.2 mph 91 % 0.0 in
15:45 14.2 °F 12.4 °F 987.4 in Calm   4.8 mph 89 % 0.0 in
16:00 14.4 °F 12.8 °F 987.4 in Calm     90 % 0.0 in
16:15 14.9 °F 12.8 °F 987.4 in WNW 1.6 mph 6.4 mph 87 % 0.0 in
16:30 14.8 °F 12.2 °F 987.4 in NW 1.6 mph 9.7 mph 84 % 0.0 in
16:45 14.4 °F 12.5 °F 987.4 in Calm   1.6 mph 88 % 0.0 in
17:00 14.6 °F 12.3 °F 987.4 in Calm   1.6 mph 86 % 0.0 in
17:15 14.3 °F 12.2 °F 987.0 in Calm   1.6 mph 87 % 0.0 in
17:30 14.3 °F 12.5 °F 987.4 in Calm   1.6 mph 89 % 0.0 in
17:45 14.2 °F 12.4 °F 987.4 in Calm   3.2 mph 89 % 0.0 in
18:00 13.4 °F 11.0 °F 987.4 in Calm   1.6 mph 85 % 0.0 in
18:15 13.0 °F 11.1 °F 987.4 in Calm     88 % 0.0 in
18:30 12.8 °F 11.3 °F 987.4 in Calm     91 % 0.0 in
18:45 12.6 °F 11.3 °F 987.7 in Calm     92 % 0.0 in
19:00 12.3 °F 11.2 °F 987.7 in Calm     93 % 0.0 in
19:15 12.2 °F 11.2 °F 987.7 in Calm     94 % 0.0 in
19:30 12.1 °F 11.3 °F 987.7 in Calm     95 % 0.0 in
19:45 12.1 °F 11.4 °F 987.7 in Calm     96 % 0.0 in
20:00 12.0 °F 11.4 °F 987.7 in Calm     96 % 0.0 in
20:15 11.8 °F 11.2 °F 987.7 in Calm     96 % 0.0 in
20:30 11.7 °F 11.1 °F 987.7 in Calm     96 % 0.0 in
20:45 11.6 °F 10.9 °F 988.0 in Calm     96 % 0.0 in
21:00 11.6 °F 10.9 °F 988.0 in Calm   4.8 mph 96 % 0.0 in
21:15 11.3 °F 10.7 °F 988.0 in Calm     96 % 0.0 in
21:30 10.9 °F 10.3 °F 988.4 in Calm   3.2 mph 96 % 0.0 in
21:45 10.6 °F 10.0 °F 988.0 in Calm     96 % 0.0 in
22:00 10.6 °F 9.9 °F 988.4 in Calm   1.6 mph 96 % 0.0 in
22:15 10.4 °F 10.0 °F 988.4 in Calm     97 % 0.0 in
22:30 10.4 °F 9.9 °F 988.4 in Calm     97 % 0.0 in
22:45 10.3 °F 9.9 °F 988.4 in Calm     97 % 0.0 in
23:00 10.3 °F 9.8 °F 988.7 in Calm     97 % 0.0 in
23:15 10.3 °F 9.8 °F 988.7 in Calm     97 % 0.0 in
23:30 10.3 °F 9.9 °F 988.7 in Calm   1.6 mph 97 % 0.0 in
23:45 10.5 °F 10.0 °F 988.7 in Calm   1.6 mph 97 % 0.0 in
Esan sääasema
Terveisin Weather Underground - 2.75 mb

Alkuperäinen skripti  Jim McMurry - jmcmurry@mwt.net Sovitettu myös templatelle  Wim van der Kuil - Leuven-Template.eu

Laitteet joita käytämme:

Sääasema
Davis VP2

Sääasemaohjelma
Cumulus

Sääaseman tietokone
Asus EeePC

Palveluntarjoaja
Suncomet

Davis VP2

Cumulus

Asus EeePC

Suncomet